Vadito, NM

6:51 AM MST on December 29, 2014 (GMT -0700)
Bell Mountain Ranch | Change Station
CLOSE
Current Station
Personal Weather Station
Location: Vadito, NM
Elevation: 7660 ft
Nearby Weather Stations
Active Advisory: Special Statement

Elev 7660 ft 36.19 °N, 105.66 °W | Updated 1 minute ago

Partly Cloudy
Partly Cloudy
4.1 °F
Feels Like -9 °F
N
8.3
Wind Variable Wind from South
Gusts 9.8 mph

Today
High -- | Low -- °F
--% Chance of Precip.
Yesterday
High -- | Low -- °F
Precip. -- in
7:13 AM 4:56 PM
First Quarter, 59% visible
Pressure 29.97 in
Visibility 10.0 miles
Clouds Clear
Windchill -9 °F
Dew Point -6 °F
Humidity 63%
Rainfall 0.00 in
Snow Depth Not available.
UV 0 out of 12
Pollen 2.10 out of 12
Air Quality Not available.
Flu Activity Not available.
METAR KSKX 291335Z AUTO 00000KT 10SM CLR M18/M21 A2997 RMK AO1

More Conditions Fewer Conditions

Pressure 29.97 in
Visibility 10.0 miles
Clouds Clear
Windchill -9 °F
Dew Point -6 °F
Humidity 63%
Rainfall 0.00 in
Snow Depth Not available.
UV 0 out of 12
Pollen 2.10 out of 12
Air Quality Not available.
Flu Activity Not available.
METAR KSKX 291335Z AUTO 00000KT 10SM CLR M18/M21 A2997 RMK AO1

More Conditions Fewer Conditions

10-Day Weather Forecast

Almanac

Astronomy

Dec. 29, 2014 Rise Set
Actual Time
Civil Twilight
Nautical Twilight
Astronomical Twilight
Moon
Length of Visible Light
Length of Day
Tomorrow will be .
, % of the Moon is Illuminated

Today's Extremes

State Highs State Lows

Community

WunderPhotos

Upload Photos

1,781,586 photos uploaded!

WunderBlogs® & News

Nearby

Air Quality

  Air Quality AQ Index Pollutant
Not available.

Snow Depth

Station Depth Elevation

Earthquake Activity

City Distance Mag. Time & Date
Minimum magnitude displayed is 2.5.

Coastal Water Temperatures

Place Temperature

Nearby Weather Stations